sensor_id;sensor_type;location;lat;lon;timestamp;pressure;altitude;pressure_sealevel;temperature;humidity
60371;BME280;48550;40.588;49.684;2023-02-03T00:01:32;101666.06;;;4.75;100.00
60371;BME280;48550;40.588;49.684;2023-02-03T00:03:57;101659.94;;;4.66;100.00
60371;BME280;48550;40.588;49.684;2023-02-03T00:06:23;101663.66;;;4.49;100.00
60371;BME280;48550;40.588;49.684;2023-02-03T00:08:52;101670.28;;;4.37;100.00
60371;BME280;48550;40.588;49.684;2023-02-03T00:11:20;101678.91;;;4.39;100.00
60371;BME280;48550;40.588;49.684;2023-02-03T00:13:46;101674.75;;;4.44;100.00
60371;BME280;48550;40.588;49.684;2023-02-03T00:16:11;101671.13;;;4.21;100.00
60371;BME280;48550;40.588;49.684;2023-02-03T00:18:37;101637.25;;;4.23;100.00
60371;BME280;48550;40.588;49.684;2023-02-03T00:21:04;101653.34;;;4.30;100.00
60371;BME280;48550;40.588;49.684;2023-02-03T00:23:30;101668.63;;;4.36;100.00
60371;BME280;48550;40.588;49.684;2023-02-03T00:25:57;101668.63;;;4.44;100.00
60371;BME280;48550;40.588;49.684;2023-02-03T00:28:23;101655.69;;;4.25;100.00
60371;BME280;48550;40.588;49.684;2023-02-03T00:30:52;101672.28;;;4.35;100.00
60371;BME280;48550;40.588;49.684;2023-02-03T00:33:18;101676.25;;;4.39;100.00
60371;BME280;48550;40.588;49.684;2023-02-03T00:35:44;101687.56;;;4.41;100.00
60371;BME280;48550;40.588;49.684;2023-02-03T00:38:09;101687.06;;;4.45;100.00
60371;BME280;48550;40.588;49.684;2023-02-03T00:40:35;101688.22;;;4.59;100.00
60371;BME280;48550;40.588;49.684;2023-02-03T00:43:01;101688.91;;;4.53;100.00
60371;BME280;48550;40.588;49.684;2023-02-03T00:45:26;101687.91;;;4.54;100.00
60371;BME280;48550;40.588;49.684;2023-02-03T00:47:52;101685.38;;;4.61;100.00
60371;BME280;48550;40.588;49.684;2023-02-03T00:50:18;101690.06;;;4.51;100.00
60371;BME280;48550;40.588;49.684;2023-02-03T00:52:43;101689.56;;;4.39;100.00
60371;BME280;48550;40.588;49.684;2023-02-03T00:55:09;101686.91;;;4.39;100.00
60371;BME280;48550;40.588;49.684;2023-02-03T00:57:35;101699.53;;;4.37;100.00
60371;BME280;48550;40.588;49.684;2023-02-03T01:00:01;101697.88;;;4.36;100.00
60371;BME280;48550;40.588;49.684;2023-02-03T01:02:26;101698.84;;;4.35;100.00
60371;BME280;48550;40.588;49.684;2023-02-03T01:04:52;101717.81;;;4.32;100.00
60371;BME280;48550;40.588;49.684;2023-02-03T01:07:18;101721.78;;;4.44;100.00
60371;BME280;48550;40.588;49.684;2023-02-03T01:09:43;101731.09;;;4.40;100.00
60371;BME280;48550;40.588;49.684;2023-02-03T01:12:09;101729.75;;;4.36;100.00
60371;BME280;48550;40.588;49.684;2023-02-03T01:14:35;101724.25;;;4.45;100.00
60371;BME280;48550;40.588;49.684;2023-02-03T01:17:00;101726.75;;;4.39;100.00
60371;BME280;48550;40.588;49.684;2023-02-03T01:19:26;101721.44;;;4.39;100.00
60371;BME280;48550;40.588;49.684;2023-02-03T01:21:52;101723.78;;;4.34;100.00
60371;BME280;48550;40.588;49.684;2023-02-03T01:24:17;101732.75;;;4.49;100.00
60371;BME280;48550;40.588;49.684;2023-02-03T01:26:43;101738.72;;;4.59;100.00
60371;BME280;48550;40.588;49.684;2023-02-03T01:29:09;101734.91;;;4.54;100.00
60371;BME280;48550;40.588;49.684;2023-02-03T01:31:38;101734.91;;;4.45;100.00
60371;BME280;48550;40.588;49.684;2023-02-03T01:34:05;101747.06;;;4.48;100.00
60371;BME280;48550;40.588;49.684;2023-02-03T01:36:33;101751.69;;;4.54;100.00
60371;BME280;48550;40.588;49.684;2023-02-03T01:38:59;101737.75;;;4.52;100.00
60371;BME280;48550;40.588;49.684;2023-02-03T01:41:30;101739.06;;;4.48;100.00
60371;BME280;48550;40.588;49.684;2023-02-03T01:43:58;101744.72;;;4.53;100.00
60371;BME280;48550;40.588;49.684;2023-02-03T01:46:45;101766.50;;;4.49;100.00
60371;BME280;48550;40.588;49.684;2023-02-03T01:49:18;101754.69;;;4.59;100.00
60371;BME280;48550;40.588;49.684;2023-02-03T01:51:46;101756.34;;;4.60;100.00
60371;BME280;48550;40.588;49.684;2023-02-03T01:54:29;101755.19;;;4.55;100.00
60371;BME280;48550;40.588;49.684;2023-02-03T01:57:05;101767.00;;;4.52;100.00
60371;BME280;48550;40.588;49.684;2023-02-03T01:59:33;101766.78;;;4.45;100.00
60371;BME280;48550;40.588;49.684;2023-02-03T02:02:00;101788.72;;;4.39;100.00
60371;BME280;48550;40.588;49.684;2023-02-03T02:04:33;101786.72;;;4.33;100.00
60371;BME280;48550;40.588;49.684;2023-02-03T02:07:01;101776.75;;;4.27;100.00
60371;BME280;48550;40.588;49.684;2023-02-03T02:09:27;101791.22;;;4.17;100.00
60371;BME280;48550;40.588;49.684;2023-02-03T02:11:53;101788.56;;;4.17;100.00
60371;BME280;48550;40.588;49.684;2023-02-03T02:14:19;101786.22;;;4.13;100.00
60371;BME280;48550;40.588;49.684;2023-02-03T02:17:02;101787.22;;;4.12;100.00
60371;BME280;48550;40.588;49.684;2023-02-03T02:27:45;101797.84;;;4.29;100.00
60371;BME280;48550;40.588;49.684;2023-02-03T02:38:58;101835.06;;;4.21;100.00
60371;BME280;48550;40.588;49.684;2023-02-03T02:41:34;101825.41;;;4.11;100.00
60371;BME280;48550;40.588;49.684;2023-02-03T02:44:32;101836.34;;;4.00;100.00
60371;BME280;48550;40.588;49.684;2023-02-03T02:47:04;101829.50;;;3.90;100.00
60371;BME280;48550;40.588;49.684;2023-02-03T02:49:36;101836.50;;;3.99;100.00
60371;BME280;48550;40.588;49.684;2023-02-03T02:52:04;101843.81;;;4.05;100.00
60371;BME280;48550;40.588;49.684;2023-02-03T02:54:33;101846.97;;;4.00;100.00
60371;BME280;48550;40.588;49.684;2023-02-03T02:57:03;101844.97;;;3.94;100.00
60371;BME280;48550;40.588;49.684;2023-02-03T02:59:30;101855.59;;;3.94;100.00
60371;BME280;48550;40.588;49.684;2023-02-03T03:01:56;101844.97;;;3.94;100.00
60371;BME280;48550;40.588;49.684;2023-02-03T03:04:28;101852.91;;;3.86;100.00
60371;BME280;48550;40.588;49.684;2023-02-03T03:07:00;101850.41;;;3.85;100.00
60371;BME280;48550;40.588;49.684;2023-02-03T03:14:41;101854.75;;;3.94;100.00
60371;BME280;48550;40.588;49.684;2023-02-03T03:17:10;101855.75;;;3.93;100.00
60371;BME280;48550;40.588;49.684;2023-02-03T03:19:41;101855.94;;;3.99;100.00
60371;BME280;48550;40.588;49.684;2023-02-03T03:22:11;101862.03;;;3.83;100.00
60371;BME280;48550;40.588;49.684;2023-02-03T03:24:44;101867.06;;;3.69;100.00
60371;BME280;48550;40.588;49.684;2023-02-03T03:27:21;101868.88;;;3.60;100.00
60371;BME280;48550;40.588;49.684;2023-02-03T03:29:53;101866.38;;;3.59;100.00
60371;BME280;48550;40.588;49.684;2023-02-03T03:32:21;101868.97;;;3.50;100.00
60371;BME280;48550;40.588;49.684;2023-02-03T03:34:47;101871.69;;;3.59;100.00
60371;BME280;48550;40.588;49.684;2023-02-03T03:40:27;101885.75;;;3.51;100.00
60371;BME280;48550;40.588;49.684;2023-02-03T03:42:58;101892.03;;;3.50;100.00
60371;BME280;48550;40.588;49.684;2023-02-03T03:45:34;101898.81;;;3.44;100.00
60371;BME280;48550;40.588;49.684;2023-02-03T03:48:06;101894.03;;;3.48;100.00
60371;BME280;48550;40.588;49.684;2023-02-03T03:50:39;101903.75;;;3.39;100.00
60371;BME280;48550;40.588;49.684;2023-02-03T03:53:06;101901.31;;;3.46;100.00
60371;BME280;48550;40.588;49.684;2023-02-03T03:55:35;101899.81;;;3.43;100.00
60371;BME280;48550;40.588;49.684;2023-02-03T03:58:05;101898.50;;;3.47;100.00
60371;BME280;48550;40.588;49.684;2023-02-03T04:00:34;101907.50;;;3.55;100.00
60371;BME280;48550;40.588;49.684;2023-02-03T04:03:12;101914.47;;;3.56;100.00
60371;BME280;48550;40.588;49.684;2023-02-03T04:05:39;101912.88;;;3.71;100.00
60371;BME280;48550;40.588;49.684;2023-02-03T04:08:05;101919.91;;;3.72;100.00
60371;BME280;48550;40.588;49.684;2023-02-03T04:10:39;101920.28;;;3.59;100.00
60371;BME280;48550;40.588;49.684;2023-02-03T04:13:07;101921.91;;;3.78;100.00
60371;BME280;48550;40.588;49.684;2023-02-03T04:15:34;101924.25;;;3.55;100.00
60371;BME280;48550;40.588;49.684;2023-02-03T04:18:00;101941.63;;;3.49;100.00
60371;BME280;48550;40.588;49.684;2023-02-03T04:20:27;101942.16;;;3.53;100.00
60371;BME280;48550;40.588;49.684;2023-02-03T04:22:53;101939.47;;;3.45;100.00
60371;BME280;48550;40.588;49.684;2023-02-03T04:25:19;101946.63;;;3.53;100.00
60371;BME280;48550;40.588;49.684;2023-02-03T04:27:45;101944.34;;;3.58;100.00
60371;BME280;48550;40.588;49.684;2023-02-03T04:30:11;101943.78;;;3.46;100.00
60371;BME280;48550;40.588;49.684;2023-02-03T04:32:37;101939.25;;;3.38;100.00
60371;BME280;48550;40.588;49.684;2023-02-03T04:35:04;101945.50;;;3.55;100.00
60371;BME280;48550;40.588;49.684;2023-02-03T04:37:30;101943.31;;;3.50;100.00
60371;BME280;48550;40.588;49.684;2023-02-03T04:39:56;101949.75;;;3.48;100.00
60371;BME280;48550;40.588;49.684;2023-02-03T04:42:22;101953.81;;;3.60;100.00
60371;BME280;48550;40.588;49.684;2023-02-03T04:44:48;101956.09;;;3.55;100.00
60371;BME280;48550;40.588;49.684;2023-02-03T04:47:15;101964.91;;;3.56;100.00
60371;BME280;48550;40.588;49.684;2023-02-03T04:49:41;101969.63;;;3.70;100.00
60371;BME280;48550;40.588;49.684;2023-02-03T04:52:06;101967.38;;;3.75;100.00
60371;BME280;48550;40.588;49.684;2023-02-03T04:54:32;101970.34;;;3.72;100.00
60371;BME280;48550;40.588;49.684;2023-02-03T04:56:59;101973.97;;;3.97;100.00
60371;BME280;48550;40.588;49.684;2023-02-03T04:59:25;101971.03;;;4.08;100.00
60371;BME280;48550;40.588;49.684;2023-02-03T05:01:51;101988.47;;;3.76;100.00
60371;BME280;48550;40.588;49.684;2023-02-03T05:04:17;101982.88;;;3.88;100.00
60371;BME280;48550;40.588;49.684;2023-02-03T05:06:43;101999.84;;;3.69;100.00
60371;BME280;48550;40.588;49.684;2023-02-03T05:09:09;101982.75;;;3.71;100.00
60371;BME280;48550;40.588;49.684;2023-02-03T05:11:34;101988.16;;;3.62;100.00
60371;BME280;48550;40.588;49.684;2023-02-03T05:14:00;101997.53;;;3.48;100.00
60371;BME280;48550;40.588;49.684;2023-02-03T05:16:26;101997.00;;;3.44;100.00
60371;BME280;48550;40.588;49.684;2023-02-03T05:18:52;101999.53;;;3.28;100.00
60371;BME280;48550;40.588;49.684;2023-02-03T05:21:17;101991.28;;;3.31;100.00
60371;BME280;48550;40.588;49.684;2023-02-03T05:23:43;102003.41;;;3.16;100.00
60371;BME280;48550;40.588;49.684;2023-02-03T05:26:09;102011.75;;;3.21;100.00
60371;BME280;48550;40.588;49.684;2023-02-03T05:28:34;102012.28;;;3.25;100.00
60371;BME280;48550;40.588;49.684;2023-02-03T05:31:01;102015.84;;;3.33;100.00
60371;BME280;48550;40.588;49.684;2023-02-03T05:33:27;102010.84;;;3.30;100.00
60371;BME280;48550;40.588;49.684;2023-02-03T05:35:53;102012.19;;;3.34;100.00
60371;BME280;48550;40.588;49.684;2023-02-03T05:38:18;102011.88;;;3.37;100.00
60371;BME280;48550;40.588;49.684;2023-02-03T05:40:47;102013.28;;;3.24;100.00
60371;BME280;48550;40.588;49.684;2023-02-03T05:43:48;102030.25;;;3.13;100.00
60371;BME280;48550;40.588;49.684;2023-02-03T05:46:14;102025.25;;;3.10;100.00
60371;BME280;48550;40.588;49.684;2023-02-03T05:48:40;102034.72;;;3.30;100.00
60371;BME280;48550;40.588;49.684;2023-02-03T05:51:05;102039.66;;;3.25;100.00
60371;BME280;48550;40.588;49.684;2023-02-03T05:53:31;102028.13;;;3.34;100.00
60371;BME280;48550;40.588;49.684;2023-02-03T05:55:56;102042.13;;;3.44;100.00
60371;BME280;48550;40.588;49.684;2023-02-03T05:58:22;102053.44;;;3.46;100.00
60371;BME280;48550;40.588;49.684;2023-02-03T06:00:48;102043.06;;;3.35;100.00
60371;BME280;48550;40.588;49.684;2023-02-03T06:03:13;102053.72;;;3.43;100.00
60371;BME280;48550;40.588;49.684;2023-02-03T06:05:39;102044.66;;;3.28;100.00
60371;BME280;48550;40.588;49.684;2023-02-03T06:08:06;102060.47;;;3.38;100.00
60371;BME280;48550;40.588;49.684;2023-02-03T06:10:32;102055.84;;;3.58;100.00
60371;BME280;48550;40.588;49.684;2023-02-03T06:12:58;102062.06;;;3.48;100.00
60371;BME280;48550;40.588;49.684;2023-02-03T06:15:24;102055.63;;;3.51;100.00
60371;BME280;48550;40.588;49.684;2023-02-03T06:17:50;102055.84;;;3.58;100.00
60371;BME280;48550;40.588;49.684;2023-02-03T06:20:17;102065.84;;;3.64;100.00
60371;BME280;48550;40.588;49.684;2023-02-03T06:22:44;102064.47;;;3.60;100.00
60371;BME280;48550;40.588;49.684;2023-02-03T06:25:10;102065.16;;;3.79;100.00
60371;BME280;48550;40.588;49.684;2023-02-03T06:27:36;102070.16;;;3.82;100.00
60371;BME280;48550;40.588;49.684;2023-02-03T06:30:03;102079.94;;;3.64;100.00
60371;BME280;48550;40.588;49.684;2023-02-03T06:32:28;102066.97;;;3.61;100.00
60371;BME280;48550;40.588;49.684;2023-02-03T06:34:54;102074.16;;;3.69;100.00
60371;BME280;48550;40.588;49.684;2023-02-03T06:37:20;102066.66;;;3.82;100.00
60371;BME280;48550;40.588;49.684;2023-02-03T06:39:45;102075.16;;;3.86;100.00
60371;BME280;48550;40.588;49.684;2023-02-03T06:42:11;102075.38;;;3.92;100.00
60371;BME280;48550;40.588;49.684;2023-02-03T06:44:37;102068.38;;;3.91;100.00
60371;BME280;48550;40.588;49.684;2023-02-03T06:47:03;102055.16;;;3.99;100.00
60371;BME280;48550;40.588;49.684;2023-02-03T06:49:28;102054.16;;;4.00;100.00
60371;BME280;48550;40.588;49.684;2023-02-03T06:51:54;102057.41;;;3.86;100.00
60371;BME280;48550;40.588;49.684;2023-02-03T06:54:20;102056.41;;;3.69;100.00
60371;BME280;48550;40.588;49.684;2023-02-03T06:56:46;102066.75;;;3.72;100.00
60371;BME280;48550;40.588;49.684;2023-02-03T06:59:12;102059.38;;;3.66;100.00
60371;BME280;48550;40.588;49.684;2023-02-03T07:01:38;102052.81;;;3.53;100.00
60371;BME280;48550;40.588;49.684;2023-02-03T07:04:04;102054.44;;;3.89;100.00
60371;BME280;48550;40.588;49.684;2023-02-03T07:06:31;102056.41;;;3.87;100.00
60371;BME280;48550;40.588;49.684;2023-02-03T07:09:03;102050.44;;;3.67;100.00
60371;BME280;48550;40.588;49.684;2023-02-03T07:11:30;102052.41;;;3.83;100.00
60371;BME280;48550;40.588;49.684;2023-02-03T07:13:56;102056.66;;;4.02;100.00
60371;BME280;48550;40.588;49.684;2023-02-03T07:16:22;102050.88;;;4.06;100.00
60371;BME280;48550;40.588;49.684;2023-02-03T07:18:48;102050.75;;;4.16;100.00
60371;BME280;48550;40.588;49.684;2023-02-03T07:21:15;102055.31;;;4.32;100.00
60371;BME280;48550;40.588;49.684;2023-02-03T07:23:41;102057.81;;;4.33;100.00
60371;BME280;48550;40.588;49.684;2023-02-03T07:26:09;102046.88;;;4.36;100.00
60371;BME280;48550;40.588;49.684;2023-02-03T07:28:35;102038.06;;;4.70;100.00
60371;BME280;48550;40.588;49.684;2023-02-03T07:31:02;102053.19;;;4.69;100.00
60371;BME280;48550;40.588;49.684;2023-02-03T07:33:35;102052.03;;;4.38;100.00
60371;BME280;48550;40.588;49.684;2023-02-03T07:36:01;102047.31;;;4.58;100.00
60371;BME280;48550;40.588;49.684;2023-02-03T07:38:28;102035.66;;;4.51;100.00
60371;BME280;48550;40.588;49.684;2023-02-03T07:40:54;102031.13;;;4.43;100.00
60371;BME280;48550;40.588;49.684;2023-02-03T07:43:20;102040.59;;;4.45;100.00
60371;BME280;48550;40.588;49.684;2023-02-03T07:45:46;102038.06;;;4.70;100.00
60371;BME280;48550;40.588;49.684;2023-02-03T07:48:12;102038.94;;;4.87;100.00
60371;BME280;48550;40.588;49.684;2023-02-03T07:50:38;102037.44;;;4.42;100.00
60371;BME280;48550;40.588;49.684;2023-02-03T07:53:05;102030.59;;;4.39;100.00
60371;BME280;48550;40.588;49.684;2023-02-03T07:55:31;102036.97;;;4.46;100.00
60371;BME280;48550;40.588;49.684;2023-02-03T07:57:58;102037.53;;;4.58;100.00
60371;BME280;48550;40.588;49.684;2023-02-03T08:00:24;102037.56;;;4.74;100.00
60371;BME280;48550;40.588;49.684;2023-02-03T08:02:51;102038.59;;;4.90;100.00
60371;BME280;48550;40.588;49.684;2023-02-03T08:05:17;102030.25;;;4.68;100.00
60371;BME280;48550;40.588;49.684;2023-02-03T08:07:44;102030.44;;;4.83;100.00
60371;BME280;48550;40.588;49.684;2023-02-03T08:10:11;102029.78;;;4.97;100.00
60371;BME280;48550;40.588;49.684;2023-02-03T08:12:38;102024.63;;;4.88;100.00
60371;BME280;48550;40.588;49.684;2023-02-03T08:15:05;102033.28;;;4.90;100.00
60371;BME280;48550;40.588;49.684;2023-02-03T08:17:31;102032.94;;;4.93;100.00
60371;BME280;48550;40.588;49.684;2023-02-03T08:19:58;102028.25;;;4.70;100.00
60371;BME280;48550;40.588;49.684;2023-02-03T08:22:24;102038.63;;;4.98;100.00
60371;BME280;48550;40.588;49.684;2023-02-03T08:24:50;102020.34;;;5.19;100.00
60371;BME280;48550;40.588;49.684;2023-02-03T08:27:18;102024.69;;;5.28;100.00
60371;BME280;48550;40.588;49.684;2023-02-03T08:29:44;102026.66;;;5.02;100.00
60371;BME280;48550;40.588;49.684;2023-02-03T08:32:14;102026.00;;;5.16;100.00
60371;BME280;48550;40.588;49.684;2023-02-03T08:34:40;102023.66;;;4.97;100.00
60371;BME280;48550;40.588;49.684;2023-02-03T08:37:07;102018.50;;;4.95;100.00
60371;BME280;48550;40.588;49.684;2023-02-03T08:39:33;102023.84;;;5.20;100.00
60371;BME280;48550;40.588;49.684;2023-02-03T08:42:00;102018.88;;;5.41;100.00
60371;BME280;48550;40.588;49.684;2023-02-03T08:44:28;102020.22;;;5.29;100.00
60371;BME280;48550;40.588;49.684;2023-02-03T08:46:54;102014.84;;;5.04;100.00
60371;BME280;48550;40.588;49.684;2023-02-03T08:49:20;102016.69;;;5.12;100.00
60371;BME280;48550;40.588;49.684;2023-02-03T08:51:46;102010.19;;;5.15;100.00
60371;BME280;48550;40.588;49.684;2023-02-03T08:54:13;102010.88;;;5.41;100.00
60371;BME280;48550;40.588;49.684;2023-02-03T08:56:39;102005.56;;;5.41;100.00
60371;BME280;48550;40.588;49.684;2023-02-03T08:59:05;102004.06;;;5.47;100.00
60371;BME280;48550;40.588;49.684;2023-02-03T09:01:31;101993.56;;;5.53;100.00
60371;BME280;48550;40.588;49.684;2023-02-03T09:03:57;101991.72;;;5.54;100.00
60371;BME280;48550;40.588;49.684;2023-02-03T09:06:27;101984.25;;;5.49;100.00
60371;BME280;48550;40.588;49.684;2023-02-03T09:08:54;102001.69;;;5.68;100.00
60371;BME280;48550;40.588;49.684;2023-02-03T09:11:20;101987.38;;;5.69;100.00
60371;BME280;48550;40.588;49.684;2023-02-03T09:13:45;101993.00;;;5.82;100.00
60371;BME280;48550;40.588;49.684;2023-02-03T09:16:14;101981.69;;;5.80;100.00
60371;BME280;48550;40.588;49.684;2023-02-03T09:18:42;101982.22;;;5.75;100.00
60371;BME280;48550;40.588;49.684;2023-02-03T09:21:09;101983.38;;;5.73;100.00
60371;BME280;48550;40.588;49.684;2023-02-03T09:23:39;101987.22;;;5.70;100.00
60371;BME280;48550;40.588;49.684;2023-02-03T09:26:10;101978.59;;;5.52;100.00
60371;BME280;48550;40.588;49.684;2023-02-03T09:28:37;101984.38;;;5.72;100.00
60371;BME280;48550;40.588;49.684;2023-02-03T09:31:05;101983.66;;;6.11;100.00
60371;BME280;48550;40.588;49.684;2023-02-03T09:33:32;101981.66;;;5.88;100.00
60371;BME280;48550;40.588;49.684;2023-02-03T09:35:58;101981.69;;;6.04;100.00
60371;BME280;48550;40.588;49.684;2023-02-03T09:38:25;101981.66;;;6.13;100.00
60371;BME280;48550;40.588;49.684;2023-02-03T09:41:00;101985.75;;;6.31;100.00
60371;BME280;48550;40.588;49.684;2023-02-03T09:46:22;101996.34;;;5.92;100.00
60371;BME280;48550;40.588;49.684;2023-02-03T09:48:53;101998.66;;;6.12;100.00
60371;BME280;48550;40.588;49.684;2023-02-03T09:54:00;101990.41;;;6.29;100.00
60371;BME280;48550;40.588;49.684;2023-02-03T09:56:32;101983.31;;;6.14;100.00
60371;BME280;48550;40.588;49.684;2023-02-03T09:58:59;101987.47;;;6.16;100.00
60371;BME280;48550;40.588;49.684;2023-02-03T10:04:33;101985.38;;;5.95;100.00
60371;BME280;48550;40.588;49.684;2023-02-03T10:07:29;101985.34;;;6.03;100.00
60371;BME280;48550;40.588;49.684;2023-02-03T10:12:54;101975.56;;;6.35;100.00
60371;BME280;48550;40.588;49.684;2023-02-03T10:15:53;101987.31;;;6.80;100.00
60371;BME280;48550;40.588;49.684;2023-02-03T10:18:31;101988.22;;;6.95;100.00
60371;BME280;48550;40.588;49.684;2023-02-03T10:21:09;101992.38;;;6.97;100.00
60371;BME280;48550;40.588;49.684;2023-02-03T10:23:39;101985.19;;;6.98;100.00
60371;BME280;48550;40.588;49.684;2023-02-03T10:26:08;101987.09;;;6.89;100.00
60371;BME280;48550;40.588;49.684;2023-02-03T10:28:50;101992.97;;;7.08;100.00
60371;BME280;48550;40.588;49.684;2023-02-03T10:31:20;101996.34;;;7.24;100.00
60371;BME280;48550;40.588;49.684;2023-02-03T10:33:52;101993.31;;;7.27;100.00
60371;BME280;48550;40.588;49.684;2023-02-03T10:38:53;101994.97;;;7.51;100.00
60371;BME280;48550;40.588;49.684;2023-02-03T10:41:23;102005.34;;;7.23;100.00
60371;BME280;48550;40.588;49.684;2023-02-03T10:43:50;102004.25;;;6.25;100.00
60371;BME280;48550;40.588;49.684;2023-02-03T10:46:32;102003.69;;;6.77;100.00
60371;BME280;48550;40.588;49.684;2023-02-03T10:48:58;101998.06;;;6.94;100.00
60371;BME280;48550;40.588;49.684;2023-02-03T10:51:29;102001.91;;;6.69;100.00
60371;BME280;48550;40.588;49.684;2023-02-03T10:53:56;102011.16;;;6.81;100.00
60371;BME280;48550;40.588;49.684;2023-02-03T10:56:37;102013.94;;;6.57;100.00
60371;BME280;48550;40.588;49.684;2023-02-03T10:59:04;102015.69;;;6.81;100.00
60371;BME280;48550;40.588;49.684;2023-02-03T11:01:43;102018.16;;;6.82;100.00
60371;BME280;48550;40.588;49.684;2023-02-03T11:04:35;102020.13;;;6.10;100.00
60371;BME280;48550;40.588;49.684;2023-02-03T11:07:04;102021.22;;;6.32;100.00
60371;BME280;48550;40.588;49.684;2023-02-03T11:09:38;102018.72;;;6.30;100.00
60371;BME280;48550;40.588;49.684;2023-02-03T11:12:07;102014.19;;;6.39;100.00
60371;BME280;48550;40.588;49.684;2023-02-03T11:14:44;102014.97;;;6.09;100.00
60371;BME280;48550;40.588;49.684;2023-02-03T11:17:16;102016.97;;;6.15;100.00
60371;BME280;48550;40.588;49.684;2023-02-03T11:19:45;102017.84;;;6.46;100.00
60371;BME280;48550;40.588;49.684;2023-02-03T11:22:13;102012.16;;;6.49;100.00
60371;BME280;48550;40.588;49.684;2023-02-03T11:24:50;102008.56;;;6.65;100.00
60371;BME280;48550;40.588;49.684;2023-02-03T11:27:17;102017.34;;;6.82;100.00
60371;BME280;48550;40.588;49.684;2023-02-03T11:29:50;102021.06;;;6.64;100.00
60371;BME280;48550;40.588;49.684;2023-02-03T11:32:38;102015.44;;;6.90;100.00
60371;BME280;48550;40.588;49.684;2023-02-03T11:37:45;102016.53;;;7.04;100.00
60371;BME280;48550;40.588;49.684;2023-02-03T11:40:21;102009.69;;;7.24;100.00
60371;BME280;48550;40.588;49.684;2023-02-03T11:47:47;102022.28;;;7.16;100.00
60371;BME280;48550;40.588;49.684;2023-02-03T11:50:34;102022.31;;;6.85;100.00
60371;BME280;48550;40.588;49.684;2023-02-03T11:56:13;102022.78;;;6.57;100.00
60371;BME280;48550;40.588;49.684;2023-02-03T12:10:20;102024.41;;;6.66;100.00
60371;BME280;48550;40.588;49.684;2023-02-03T12:14:44;102019.94;;;6.59;100.00
60371;BME280;48550;40.588;49.684;2023-02-03T12:22:42;102030.44;;;6.60;100.00
60371;BME280;48550;40.588;49.684;2023-02-03T12:25:49;102025.72;;;6.31;100.00
60371;BME280;48550;40.588;49.684;2023-02-03T12:34:27;102027.31;;;6.49;100.00
60371;BME280;48550;40.588;49.684;2023-02-03T12:37:18;102035.31;;;6.49;100.00
60371;BME280;48550;40.588;49.684;2023-02-03T12:39:56;102033.59;;;6.25;100.00
60371;BME280;48550;40.588;49.684;2023-02-03T12:42:30;102034.09;;;6.20;100.00
60371;BME280;48550;40.588;49.684;2023-02-03T12:44:59;102034.00;;;5.97;100.00
60371;BME280;48550;40.588;49.684;2023-02-03T12:47:41;102033.00;;;5.74;100.00
60371;BME280;48550;40.588;49.684;2023-02-03T12:50:37;102034.31;;;5.78;100.00
60371;BME280;48550;40.588;49.684;2023-02-03T12:53:09;102035.50;;;6.00;100.00
60371;BME280;48550;40.588;49.684;2023-02-03T12:55:40;102039.63;;;6.11;100.00
60371;BME280;48550;40.588;49.684;2023-02-03T12:58:17;102043.28;;;6.18;100.00
60371;BME280;48550;40.588;49.684;2023-02-03T13:01:12;102036.44;;;6.23;100.00
60371;BME280;48550;40.588;49.684;2023-02-03T13:04:05;102029.88;;;6.34;100.00
60371;BME280;48550;40.588;49.684;2023-02-03T13:06:51;102023.63;;;6.19;100.00
60371;BME280;48550;40.588;49.684;2023-02-03T13:17:14;102026.66;;;5.91;100.00
60371;BME280;48550;40.588;49.684;2023-02-03T13:19:49;102027.31;;;5.77;100.00
60371;BME280;48550;40.588;49.684;2023-02-03T13:22:17;102033.13;;;5.89;100.00
60371;BME280;48550;40.588;49.684;2023-02-03T13:24:48;102029.13;;;5.85;100.00
60371;BME280;48550;40.588;49.684;2023-02-03T13:33:06;102024.81;;;5.84;100.00
60371;BME280;48550;40.588;49.684;2023-02-03T13:38:57;102026.69;;;5.59;100.00
60371;BME280;48550;40.588;49.684;2023-02-03T13:41:46;102030.16;;;5.67;100.00
60371;BME280;48550;40.588;49.684;2023-02-03T13:44:18;102027.81;;;5.89;100.00
60371;BME280;48550;40.588;49.684;2023-02-03T13:46:48;102052.28;;;5.84;100.00
60371;BME280;48550;40.588;49.684;2023-02-03T13:49:42;102063.59;;;5.86;100.00
60371;BME280;48550;40.588;49.684;2023-02-03T13:52:51;102074.81;;;5.98;100.00
60371;BME280;48550;40.588;49.684;2023-02-03T13:55:33;102081.09;;;6.13;100.00
60371;BME280;48550;40.588;49.684;2023-02-03T13:58:00;102085.25;;;6.16;100.00
60371;BME280;48550;40.588;49.684;2023-02-03T14:03:41;102093.81;;;5.95;100.00
60371;BME280;48550;40.588;49.684;2023-02-03T14:09:01;102100.06;;;5.86;100.00
60371;BME280;48550;40.588;49.684;2023-02-03T14:16:40;102100.28;;;5.92;100.00
60371;BME280;48550;40.588;49.684;2023-02-03T14:19:11;102096.59;;;5.93;100.00
60371;BME280;48550;40.588;49.684;2023-02-03T14:21:50;102096.78;;;6.00;100.00
60371;BME280;48550;40.588;49.684;2023-02-03T14:24:17;102106.78;;;5.98;100.00
60371;BME280;48550;40.588;49.684;2023-02-03T14:26:47;102101.44;;;5.90;100.00
60371;BME280;48550;40.588;49.684;2023-02-03T14:32:00;102110.56;;;5.87;100.00
60371;BME280;48550;40.588;49.684;2023-02-03T14:34:39;102102.56;;;5.87;100.00
60371;BME280;48550;40.588;49.684;2023-02-03T14:37:22;102103.06;;;5.83;100.00
60371;BME280;48550;40.588;49.684;2023-02-03T14:51:30;102110.47;;;5.97;100.00